Terminal Aerodrome Forecast
Issued by NWS

Home | Current Version | Previous Version | Text Only | Print | Product List | Glossary On
Versions: 1 2 3 4 5 6 7 8 9 10 11 12 13 14
000
FTUS44 KMAF 031900 AAA
TAFCNM
TAF AMD
KCNM 031957Z 0320/0418 17011G19KT P6SM BKN150
      TEMPO 0320/0322 VRB10G20KT -TSRA BKN040CB
     FM040400 14008KT P6SM OVC120=

USA.gov is the U.S. government's official web portal to all federal, state and local government web resources and services.